Time;durP1;ratioP1;P1;durP2;ratioP2;P2;SDS_P1;SDS_P2;PMS_P1;PMS_P2;Temp;Humidity;BMP_temperature;BMP_pressure;BME280_temperature;BME280_humidity;BME280_pressure;Samples;Min_cycle;Max_cycle;Signal;HPM_P1;HPM_P2
2021/08/08 00:00:05;;;;;;;12.75;3.65;;;;;;;21.05;92.13;97303.97;5050698;28;20592;-75
2021/08/08 00:02:36;;;;;;;5.82;3.38;;;;;;;20.98;92.75;97293.56;5050570;28;20025;-77
2021/08/08 00:05:02;;;;;;;3.58;2.42;;;;;;;21.03;92.37;97293.22;5049183;28;20032;-74
2021/08/08 00:07:27;;;;;;;5.68;3.20;;;;;;;21.04;91.93;97294.81;5049586;28;20045;-75
2021/08/08 00:09:53;;;;;;;7.05;3.20;;;;;;;21.16;91.98;97300.16;5050728;28;20029;-76
2021/08/08 00:12:18;;;;;;;3.88;2.78;;;;;;;21.04;92.20;97289.25;5050824;28;20037;-75
2021/08/08 00:14:44;;;;;;;5.45;3.00;;;;;;;20.90;91.92;97300.19;5050331;28;20029;-76
2021/08/08 00:17:09;;;;;;;6.40;2.85;;;;;;;20.75;91.69;97277.00;5050459;28;20031;-74
2021/08/08 00:19:35;;;;;;;8.40;2.72;;;;;;;20.86;91.59;97299.38;5049952;28;20040;-76
2021/08/08 00:22:00;;;;;;;7.15;3.40;;;;;;;20.67;91.73;97297.56;5048602;28;20036;-76
2021/08/08 00:24:25;;;;;;;4.82;2.65;;;;;;;20.71;91.46;97294.78;5041832;28;20026;-77
2021/08/08 00:26:52;;;;;;;4.72;3.33;;;;;;;20.75;91.49;97292.88;5039247;28;20120;-75
2021/08/08 00:29:19;;;;;;;9.70;3.05;;;;;;;20.79;91.29;97302.06;5049005;28;20040;-76
2021/08/08 00:31:44;;;;;;;6.47;3.72;;;;;;;20.59;91.27;97292.25;5032154;28;20045;-74
2021/08/08 00:34:10;;;;;;;4.30;2.60;;;;;;;20.73;90.56;97303.56;5029949;28;20036;-75
2021/08/08 00:36:36;;;;;;;7.72;2.80;;;;;;;20.67;91.11;97317.00;5030324;28;20056;-75
2021/08/08 00:39:02;;;;;;;4.47;3.22;;;;;;;20.57;91.53;97316.84;5031406;28;20446;-74
2021/08/08 00:41:28;;;;;;;3.35;2.90;;;;;;;20.66;90.89;97307.06;5029452;28;20521;-74
2021/08/08 00:43:53;;;;;;;7.25;2.83;;;;;;;20.64;90.20;97303.84;5050560;28;20128;-75
2021/08/08 00:46:19;;;;;;;5.50;2.95;;;;;;;20.63;90.92;97312.56;5052698;28;20057;-76
2021/08/08 00:48:44;;;;;;;5.93;2.65;;;;;;;20.55;90.83;97294.22;5049608;28;20540;-75
2021/08/08 00:51:09;;;;;;;8.07;2.78;;;;;;;20.61;91.37;97312.16;5049820;28;20134;-75
2021/08/08 00:53:35;;;;;;;5.82;2.60;;;;;;;20.54;91.55;97312.06;5049438;28;20056;-76
2021/08/08 00:56:01;;;;;;;5.88;2.40;;;;;;;20.42;91.87;97301.16;5049612;28;20675;-76
2021/08/08 00:58:27;;;;;;;7.93;2.40;;;;;;;20.53;92.39;97319.59;5048494;28;20036;-76
2021/08/08 01:00:58;;;;;;;6.70;4.70;;;;;;;20.42;93.55;97310.31;5048281;28;20025;-75
2021/08/08 01:03:26;;;;;;;3.65;3.03;;;;;;;20.27;95.07;97311.25;5049496;28;20060;-74
2021/08/08 01:05:58;;;;;;;6.57;4.13;;;;;;;20.24;95.45;97323.88;5048167;28;20025;-76
2021/08/08 01:08:26;;;;;;;16.38;4.00;;;;;;;20.20;96.00;97323.03;5049705;28;20017;-75
2021/08/08 01:10:53;;;;;;;11.57;3.03;;;;;;;20.17;96.65;97312.66;5049770;28;20040;-79
2021/08/08 01:13:20;;;;;;;3.60;3.22;;;;;;;20.13;96.47;97306.28;5049513;28;20024;-76
2021/08/08 01:15:48;;;;;;;8.95;3.63;;;;;;;20.06;97.51;97306.16;5048090;28;20148;-74
2021/08/08 01:18:14;;;;;;;9.00;3.80;;;;;;;19.91;98.13;97301.56;5050254;28;20426;-75
2021/08/08 01:20:45;;;;;;;10.13;3.55;;;;;;;19.96;98.67;97315.09;5031877;28;20116;-75
2021/08/08 01:23:14;;;;;;;7.28;3.50;;;;;;;19.97;98.39;97311.16;5031745;28;20529;-74
2021/08/08 01:25:41;;;;;;;5.55;2.90;;;;;;;19.96;98.78;97314.31;5033116;28;20104;-74
2021/08/08 01:28:07;;;;;;;7.47;3.10;;;;;;;20.04;98.67;97325.19;5031547;28;20438;-74
2021/08/08 01:30:33;;;;;;;7.32;2.97;;;;;;;19.90;99.20;97311.03;5031742;28;20060;-74
2021/08/08 01:33:10;;;;;;;7.00;3.58;;;;;;;19.84;99.42;97309.75;5032907;28;20041;-74
2021/08/08 01:35:35;;;;;;;13.38;3.67;;;;;;;19.92;99.29;97316.25;5032865;28;20079;-74
2021/08/08 01:38:01;;;;;;;5.50;3.05;;;;;;;19.94;99.00;97323.03;5032869;28;20037;-74
2021/08/08 01:40:31;;;;;;;6.15;3.00;;;;;;;20.01;98.55;97314.81;5033303;28;20045;-74
2021/08/08 01:42:59;;;;;;;7.53;3.83;;;;;;;19.93;99.25;97317.81;5032723;28;20057;-76
2021/08/08 01:45:25;;;;;;;6.57;3.45;;;;;;;19.83;100.00;97307.38;5032392;28;20036;-74
2021/08/08 01:47:56;;;;;;;10.25;3.50;;;;;;;19.90;99.28;97308.28;5032721;28;20033;-74
2021/08/08 01:50:22;;;;;;;3.28;2.63;;;;;;;19.91;99.24;97304.34;5032805;28;20037;-75
2021/08/08 01:52:49;;;;;;;6.43;2.83;;;;;;;19.93;99.34;97315.06;5031444;28;20112;-74
2021/08/08 01:55:15;;;;;;;4.28;2.70;;;;;;;19.94;99.61;97325.00;5031305;28;20033;-76
2021/08/08 01:57:41;;;;;;;7.68;3.88;;;;;;;19.92;99.76;97311.50;5031201;28;20068;-75
2021/08/08 02:00:07;;;;;;;7.88;3.42;;;;;;;19.90;99.83;97308.28;5031421;28;20021;-75
2021/08/08 02:02:33;;;;;;;7.35;3.28;;;;;;;19.78;100.00;97289.03;5032310;28;20068;-76
2021/08/08 02:04:58;;;;;;;6.68;3.50;;;;;;;19.73;100.00;97303.25;5031404;28;20053;-75
2021/08/08 02:07:24;;;;;;;6.95;3.63;;;;;;;19.54;100.00;97297.75;5033261;28;20030;-74
2021/08/08 02:09:49;;;;;;;8.90;3.22;;;;;;;19.54;100.00;97306.88;5041431;28;20040;-74
2021/08/08 02:12:15;;;;;;;5.68;3.20;;;;;;;19.46;100.00;97307.09;5053316;28;20375;-77
2021/08/08 02:14:40;;;;;;;7.35;3.25;;;;;;;19.30;100.00;97303.59;5052335;28;20032;-76
2021/08/08 02:17:07;;;;;;;11.75;3.80;;;;;;;19.31;100.00;97319.88;5040682;28;20048;-76
2021/08/08 02:19:32;;;;;;;9.10;3.22;;;;;;;19.30;100.00;97317.47;5030150;28;20036;-77
2021/08/08 02:21:59;;;;;;;8.07;3.17;;;;;;;19.32;100.00;97320.69;5031941;28;20026;-78
2021/08/08 02:24:25;;;;;;;7.45;3.20;;;;;;;19.18;100.00;97316.47;5031307;28;20508;-75
2021/08/08 02:26:50;;;;;;;6.70;3.70;;;;;;;19.22;100.00;97322.09;5031910;28;20026;-75
2021/08/08 02:29:16;;;;;;;5.70;3.28;;;;;;;19.23;100.00;97312.63;5030227;28;20626;-75
2021/08/08 02:31:44;;;;;;;6.35;3.30;;;;;;;19.20;100.00;97324.44;5030999;28;20060;-75
2021/08/08 02:34:12;;;;;;;8.75;4.13;;;;;;;19.19;100.00;97323.63;5031931;28;20076;-77
2021/08/08 02:36:38;;;;;;;7.00;3.65;;;;;;;19.20;100.00;97327.22;5030585;28;20128;-75
2021/08/08 02:39:03;;;;;;;5.97;2.95;;;;;;;19.11;100.00;97310.78;5031071;28;20145;-75
2021/08/08 02:41:29;;;;;;;10.00;2.88;;;;;;;19.19;100.00;97320.88;5031923;28;20048;-76
2021/08/08 02:43:55;;;;;;;7.53;3.45;;;;;;;19.25;100.00;97327.72;5031635;28;20450;-76
2021/08/08 02:46:22;;;;;;;9.82;4.13;;;;;;;19.26;100.00;97325.75;5030272;28;20505;-74
2021/08/08 02:48:47;;;;;;;4.65;3.38;;;;;;;19.12;100.00;97323.50;5030445;28;20497;-75
2021/08/08 02:51:13;;;;;;;5.28;2.92;;;;;;;19.19;100.00;97320.06;5046846;28;20021;-76
2021/08/08 02:53:38;;;;;;;6.97;3.35;;;;;;;19.28;100.00;97323.41;5031710;28;20381;-74
2021/08/08 02:56:04;;;;;;;5.85;2.78;;;;;;;19.11;100.00;97321.88;5047099;28;20036;-74
2021/08/08 02:58:29;;;;;;;6.15;3.63;;;;;;;19.26;100.00;97325.75;5030487;28;20056;-73
2021/08/08 03:00:55;;;;;;;6.22;2.78;;;;;;;19.22;100.00;97317.34;5031179;28;20022;-77
2021/08/08 03:03:20;;;;;;;8.85;3.50;;;;;;;19.12;100.00;97326.25;5049480;28;20105;-74
2021/08/08 03:05:46;;;;;;;5.38;3.22;;;;;;;19.18;100.00;97330.34;5031744;28;20030;-76
2021/08/08 03:08:11;;;;;;;7.57;3.20;;;;;;;19.21;100.00;97343.47;5031590;28;20148;-74
2021/08/08 03:10:36;;;;;;;4.03;3.58;;;;;;;19.06;100.00;97341.59;5031758;28;20077;-76
2021/08/08 03:13:03;;;;;;;7.40;3.88;;;;;;;19.09;100.00;97346.41;5031405;28;20116;-73
2021/08/08 03:15:29;;;;;;;4.78;3.35;;;;;;;19.06;100.00;97341.59;5031225;28;20037;-74
2021/08/08 03:17:54;;;;;;;4.82;3.40;;;;;;;19.05;100.00;97342.75;5031447;28;20044;-74
2021/08/08 03:20:20;;;;;;;9.18;3.80;;;;;;;19.08;100.00;97350.34;5031159;28;20033;-76
2021/08/08 03:22:46;;;;;;;6.40;3.45;;;;;;;19.10;100.00;97361.06;5029995;28;20040;-74
2021/08/08 03:25:12;;;;;;;6.07;3.45;;;;;;;19.03;100.00;97345.09;5029565;28;20061;-76
2021/08/08 03:27:38;;;;;;;8.57;3.72;;;;;;;18.93;100.00;97354.00;5046323;28;20497;-74
2021/08/08 03:30:06;;;;;;;10.63;4.53;;;;;;;18.95;100.00;97359.97;5029834;28;20474;-78
2021/08/08 03:32:32;;;;;;;4.97;3.08;;;;;;;18.98;100.00;97364.00;5029548;28;20103;-75
2021/08/08 03:34:57;;;;;;;9.57;4.68;;;;;;;18.89;100.00;97366.97;5030788;28;20029;-74
2021/08/08 03:37:23;;;;;;;5.47;3.47;;;;;;;18.83;100.00;97376.75;5045654;28;20032;-75
2021/08/08 03:39:48;;;;;;;8.10;3.95;;;;;;;18.89;100.00;97377.28;5049557;28;20039;-74
2021/08/08 03:42:13;;;;;;;6.82;3.08;;;;;;;18.87;100.00;97380.41;5048888;28;20082;-76
2021/08/08 03:44:39;;;;;;;4.43;2.30;;;;;;;18.81;100.00;97381.03;5049371;28;20371;-74
2021/08/08 03:47:04;;;;;;;4.50;3.25;;;;;;;18.79;100.00;97381.41;5051017;28;20436;-74
2021/08/08 03:49:30;;;;;;;6.03;3.10;;;;;;;18.73;100.00;97383.66;5049175;28;20025;-74
2021/08/08 03:51:55;;;;;;;6.05;3.25;;;;;;;18.73;100.00;97382.88;5049135;28;20025;-76
2021/08/08 03:54:20;;;;;;;3.75;3.38;;;;;;;18.99;100.00;97380.25;5050282;28;20037;-76
2021/08/08 03:56:46;;;;;;;3.83;2.90;;;;;;;19.16;100.00;97384.56;5049045;28;20029;-77
2021/08/08 03:59:11;;;;;;;7.00;3.42;;;;;;;19.01;100.00;97382.69;5050341;28;20025;-75
2021/08/08 04:01:37;;;;;;;5.38;3.08;;;;;;;19.09;100.00;97390.78;5049260;28;20079;-75
2021/08/08 04:04:03;;;;;;;8.85;3.92;;;;;;;19.04;100.00;97391.06;5049104;28;20033;-75
2021/08/08 04:06:28;;;;;;;6.10;3.17;;;;;;;18.87;100.00;97377.63;5049182;28;20462;-76
2021/08/08 04:08:54;;;;;;;5.80;3.03;;;;;;;18.86;100.00;97383.53;5050587;28;20119;-75
2021/08/08 04:11:19;;;;;;;8.82;3.45;;;;;;;18.95;100.00;97396.00;5049177;28;20029;-75
2021/08/08 04:13:45;;;;;;;9.73;4.10;;;;;;;18.90;100.00;97392.72;5050162;28;20039;-76
2021/08/08 04:16:10;;;;;;;5.97;3.17;;;;;;;19.09;100.00;97398.28;5049961;28;20028;-74
2021/08/08 04:18:35;;;;;;;8.00;5.43;;;;;;;19.07;100.00;97393.13;5048791;28;20025;-74
2021/08/08 04:21:01;;;;;;;4.90;4.05;;;;;;;19.07;100.00;97398.66;5048620;28;20029;-75
2021/08/08 04:23:27;;;;;;;4.97;3.17;;;;;;;19.08;100.00;97405.78;5050000;28;20492;-75
2021/08/08 04:25:53;;;;;;;5.00;2.97;;;;;;;19.17;100.00;97406.38;5050076;28;20036;-75
2021/08/08 04:28:18;;;;;;;6.90;3.20;;;;;;;19.39;99.46;97412.38;5050459;28;20028;-75
2021/08/08 04:30:43;;;;;;;3.80;2.88;;;;;;;19.40;98.98;97417.56;5050270;28;20037;-74
2021/08/08 04:33:09;;;;;;;4.70;3.42;;;;;;;19.34;100.00;97430.09;5049044;28;20457;-76
2021/08/08 04:35:37;;;;;;;6.00;3.03;;;;;;;19.30;100.00;97425.63;5048829;28;20033;-75
2021/08/08 04:38:03;;;;;;;5.68;3.30;;;;;;;19.27;100.00;97430.75;5049024;28;20035;-75
2021/08/08 04:40:28;;;;;;;5.03;2.70;;;;;;;19.24;99.76;97425.94;5050559;28;20032;-75
2021/08/08 04:42:54;;;;;;;6.15;2.60;;;;;;;19.24;99.27;97419.59;5046603;28;20035;-74
2021/08/08 04:45:20;;;;;;;5.00;3.30;;;;;;;19.32;98.69;97440.78;5039034;28;20139;-74
2021/08/08 04:47:46;;;;;;;7.97;3.40;;;;;;;19.24;98.60;97428.72;5050167;28;20078;-74
2021/08/08 04:50:12;;;;;;;8.93;4.03;;;;;;;19.20;99.44;97438.94;5032822;28;20371;-74
2021/08/08 04:52:38;;;;;;;6.57;3.25;;;;;;;19.26;99.04;97442.22;5030198;28;20041;-74
2021/08/08 04:55:06;;;;;;;8.45;3.05;;;;;;;19.20;99.39;97436.16;5033915;28;20041;-75
2021/08/08 04:57:31;;;;;;;9.75;3.35;;;;;;;19.19;99.76;97444.84;5033964;28;20029;-75
2021/08/08 04:59:57;;;;;;;9.70;4.05;;;;;;;19.24;99.36;97448.13;5032825;28;20029;-75
2021/08/08 05:02:23;;;;;;;4.32;2.75;;;;;;;19.38;98.54;97457.91;5048654;28;20056;-75
2021/08/08 05:04:49;;;;;;;7.53;3.63;;;;;;;19.48;97.80;97457.38;5052399;28;20029;-76
2021/08/08 05:07:14;;;;;;;4.20;2.85;;;;;;;19.38;97.79;97458.72;5051913;28;20032;-75
2021/08/08 05:09:40;;;;;;;5.72;3.40;;;;;;;19.45;98.12;97471.97;5052282;28;20773;-75
2021/08/08 05:12:10;;;;;;;4.13;2.88;;;;;;;19.61;97.30;97467.13;5052088;28;20060;-76
2021/08/08 05:14:37;;;;;;;5.72;3.08;;;;;;;19.57;97.45;97477.38;5052022;28;20150;-76
2021/08/08 05:17:02;;;;;;;6.82;3.70;;;;;;;19.56;97.19;97464.66;5052465;28;20219;-75
2021/08/08 05:19:28;;;;;;;7.50;3.80;;;;;;;20.05;94.65;97462.03;5054151;28;20100;-77
2021/08/08 05:21:53;;;;;;;8.93;3.30;;;;;;;20.27;93.46;97464.03;5054391;28;20401;-76
2021/08/08 05:24:20;;;;;;;7.47;3.65;;;;;;;20.46;92.15;97468.72;5051833;28;20037;-76
2021/08/08 05:26:45;;;;;;;7.15;2.85;;;;;;;20.56;90.97;97473.66;5051748;28;20036;-76
2021/08/08 05:29:11;;;;;;;6.88;3.40;;;;;;;20.75;90.31;97470.78;5053283;28;20032;-76
2021/08/08 05:31:38;;;;;;;14.05;3.67;;;;;;;20.95;88.35;97480.66;5052568;28;20048;-76
2021/08/08 05:34:04;;;;;;;5.40;2.72;;;;;;;20.99;87.80;97484.28;5051510;28;20053;-75
2021/08/08 05:36:29;;;;;;;9.65;2.65;;;;;;;21.04;86.33;97478.41;5052692;28;20117;-75
2021/08/08 05:38:54;;;;;;;8.57;3.35;;;;;;;21.06;86.93;97486.34;5052651;28;20029;-75
2021/08/08 05:41:20;;;;;;;5.78;3.80;;;;;;;21.22;86.23;97487.81;5051432;28;20028;-75
2021/08/08 05:43:45;;;;;;;3.40;2.88;;;;;;;21.21;86.29;97488.19;5051726;28;20031;-75
2021/08/08 05:46:11;;;;;;;8.90;3.33;;;;;;;20.98;86.79;97474.34;5051338;28;20037;-75
2021/08/08 05:48:36;;;;;;;9.75;3.42;;;;;;;20.85;88.05;97481.28;5051401;28;20029;-75
2021/08/08 05:51:01;;;;;;;6.40;3.03;;;;;;;21.05;87.83;97491.09;5052637;28;20025;-75
2021/08/08 05:53:27;;;;;;;7.45;2.95;;;;;;;21.18;86.70;97478.63;5052674;28;20495;-75
2021/08/08 05:55:52;;;;;;;9.70;2.90;;;;;;;21.58;85.19;97500.22;5051143;28;20386;-75
2021/08/08 05:58:17;;;;;;;8.10;3.90;;;;;;;21.97;82.96;97492.38;5053476;28;20037;-84
2021/08/08 06:00:43;;;;;;;7.32;3.47;;;;;;;22.20;81.42;97484.66;5053261;28;20041;-77
2021/08/08 06:03:10;;;;;;;4.97;3.17;;;;;;;22.50;79.34;97494.88;5052573;28;20066;-73
2021/08/08 06:05:36;;;;;;;3.15;2.50;;;;;;;22.39;79.86;97495.59;5051387;28;20082;-75
2021/08/08 06:08:01;;;;;;;5.38;2.80;;;;;;;22.90;78.18;97503.22;5052309;28;20041;-75
2021/08/08 06:10:27;;;;;;;4.32;2.72;;;;;;;22.91;77.34;97511.22;5053853;28;20036;-75
2021/08/08 06:12:53;;;;;;;3.67;2.70;;;;;;;22.94;76.33;97501.25;5052825;28;20382;-76
2021/08/08 06:15:18;;;;;;;5.65;3.55;;;;;;;23.05;76.36;97504.94;5051301;28;20465;-76
2021/08/08 06:17:44;;;;;;;7.80;2.83;;;;;;;22.52;78.00;97510.06;5052720;28;20095;-79
2021/08/08 06:20:10;;;;;;;10.63;3.15;;;;;;;22.24;79.61;97507.78;5052124;28;20033;-77
2021/08/08 06:22:36;;;;;;;6.70;3.05;;;;;;;22.41;79.56;97514.72;5050265;28;20041;-76
2021/08/08 06:25:01;;;;;;;8.25;2.90;;;;;;;22.69;78.11;97517.00;5051520;28;20035;-78
2021/08/08 06:27:27;;;;;;;6.13;3.38;;;;;;;22.87;77.07;97509.56;5050947;28;20052;-79
2021/08/08 06:29:52;;;;;;;2.75;2.17;;;;;;;22.94;76.32;97512.41;5052041;28;20524;-76
2021/08/08 06:32:18;;;;;;;4.20;3.30;;;;;;;22.97;76.05;97522.00;5051896;28;20490;-77
2021/08/08 06:34:43;;;;;;;3.45;2.67;;;;;;;23.33;74.93;97523.88;5051877;28;20037;-80
2021/08/08 06:37:09;;;;;;;8.95;2.97;;;;;;;23.58;73.83;97515.66;5051593;28;20048;-77
2021/08/08 06:39:35;;;;;;;4.97;2.70;;;;;;;23.84;71.88;97520.94;5053697;28;20033;-75
2021/08/08 06:42:01;;;;;;;6.65;2.65;;;;;;;23.77;72.71;97518.94;5052082;28;20041;-80
2021/08/08 06:44:28;;;;;;;9.38;4.22;;;;;;;23.84;71.70;97520.94;5051947;28;20032;-80
2021/08/08 06:46:54;;;;;;;9.07;3.10;;;;;;;24.21;71.29;97513.16;5050525;28;20017;-79
2021/08/08 06:49:19;;;;;;;7.93;3.13;;;;;;;23.87;72.02;97514.59;5051564;28;20114;-79
2021/08/08 06:51:45;;;;;;;2.95;2.17;;;;;;;24.30;69.95;97515.56;5051556;28;20154;-80
2021/08/08 06:54:12;;;;;;;3.88;3.45;;;;;;;23.96;70.67;97518.59;5050735;28;20021;-79
2021/08/08 06:56:38;;;;;;;4.38;2.67;;;;;;;24.04;70.63;97518.63;5051676;28;20082;-79
2021/08/08 06:59:05;;;;;;;5.82;2.90;;;;;;;24.65;69.48;97523.19;5051622;28;20033;-75
2021/08/08 07:01:31;;;;;;;4.70;3.22;;;;;;;24.67;68.38;97521.59;5052341;28;20115;-75
2021/08/08 07:03:59;;;;;;;7.07;2.55;;;;;;;24.63;68.34;97528.38;5052128;28;20785;-76
2021/08/08 07:06:24;;;;;;;6.68;2.40;;;;;;;25.01;67.40;97522.03;5051657;28;20040;-74
2021/08/08 07:08:49;;;;;;;3.67;2.40;;;;;;;24.95;66.76;97530.03;5052145;28;20029;-75
2021/08/08 07:11:15;;;;;;;3.50;2.58;;;;;;;25.03;66.49;97528.81;5052730;28;20111;-74
2021/08/08 07:13:41;;;;;;;4.35;2.38;;;;;;;25.25;66.02;97532.41;5051729;28;20048;-76
2021/08/08 07:16:10;;;;;;;4.78;2.67;;;;;;;25.41;65.27;97541.19;5051810;28;20033;-75
2021/08/08 07:18:36;;;;;;;3.25;2.95;;;;;;;25.69;64.92;97534.72;5051950;28;20036;-75
2021/08/08 07:21:01;;;;;;;7.28;2.53;;;;;;;25.80;64.34;97541.13;5052424;28;20025;-75
2021/08/08 07:23:27;;;;;;;5.53;2.97;;;;;;;26.06;63.93;97537.78;5052023;28;20060;-78
2021/08/08 07:25:52;;;;;;;9.18;3.42;;;;;;;26.42;62.19;97549.66;5052773;28;20587;-83
2021/08/08 07:28:18;;;;;;;10.27;4.03;;;;;;;27.09;59.62;97548.44;5044804;28;20021;-82
2021/08/08 07:30:43;;;;;;;7.20;2.95;;;;;;;27.47;58.22;97552.13;5052931;28;20436;-80
2021/08/08 07:33:09;;;;;;;6.75;3.17;;;;;;;27.56;57.13;97552.44;5054087;28;20045;-80
2021/08/08 07:35:40;;;;;;;4.55;2.55;;;;;;;27.37;56.32;97545.34;5054690;28;20549;-84
2021/08/08 07:38:06;;;;;;;4.63;2.67;;;;;;;27.26;56.99;97553.06;5065607;28;20029;-87
2021/08/08 07:40:35;;;;;;;5.18;2.58;;;;;;;27.18;57.72;97547.94;5060913;28;20040;-89
2021/08/08 07:43:00;;;;;;;5.57;2.47;;;;;;;26.82;59.40;97553.03;5052099;28;20120;-81
2021/08/08 07:45:26;;;;;;;4.65;2.90;;;;;;;27.13;56.69;97555.59;5051577;28;20017;-81
2021/08/08 07:47:51;;;;;;;6.63;2.38;;;;;;;27.19;56.79;97560.78;5049696;28;20493;-81
2021/08/08 07:50:17;;;;;;;6.28;2.50;;;;;;;27.60;55.89;97556.78;5047816;28;20047;-79
2021/08/08 07:52:42;;;;;;;4.97;1.92;;;;;;;28.07;54.62;97559.91;5048407;28;20745;-78
2021/08/08 07:55:09;;;;;;;5.93;2.65;;;;;;;28.40;53.35;97558.28;5052264;28;20032;-77
2021/08/08 07:57:35;;;;;;;7.45;2.97;;;;;;;28.70;53.01;97561.09;5047395;28;20063;-79
2021/08/08 08:00:00;;;;;;;4.70;2.45;;;;;;;28.95;51.39;97566.34;5049593;28;20037;-85
2021/08/08 08:02:26;;;;;;;3.05;2.25;;;;;;;29.51;49.99;97559.78;5049884;28;20381;-78
2021/08/08 08:04:51;;;;;;;6.82;2.80;;;;;;;31.22;45.77;97566.28;5048083;28;20025;-75
2021/08/08 08:07:17;;;;;;;3.65;1.58;;;;;;;31.57;43.43;97565.41;5049073;28;20036;-77
2021/08/08 08:09:42;;;;;;;2.92;1.85;;;;;;;30.30;45.77;97559.84;5051016;28;20021;-77
2021/08/08 08:12:08;;;;;;;5.80;1.75;;;;;;;29.84;45.46;97558.00;5050736;28;20037;-77
2021/08/08 08:14:33;;;;;;;3.30;1.70;;;;;;;30.36;44.03;97563.75;5050180;28;20039;-80
2021/08/08 08:16:59;;;;;;;1.73;1.60;;;;;;;31.03;43.12;97562.28;5048442;28;20025;-77
2021/08/08 08:19:27;;;;;;;4.40;2.20;;;;;;;30.83;42.46;97561.53;5048167;28;20536;-78
2021/08/08 08:21:53;;;;;;;4.30;2.10;;;;;;;32.26;40.57;97568.78;5048176;28;20087;-77
2021/08/08 08:24:18;;;;;;;5.00;2.10;;;;;;;32.75;38.86;97567.28;5049025;28;20029;-79
2021/08/08 08:26:44;;;;;;;4.82;1.75;;;;;;;29.66;43.75;97561.13;5047541;28;20425;-77
2021/08/08 08:29:09;;;;;;;2.75;1.50;;;;;;;29.40;44.21;97556.34;5050707;28;20070;-78
2021/08/08 08:31:35;;;;;;;5.68;2.15;;;;;;;29.21;45.48;97563.50;5053131;28;20493;-79
2021/08/08 08:34:01;;;;;;;3.85;1.98;;;;;;;29.73;44.47;97560.97;5053492;28;20447;-79
2021/08/08 08:36:27;;;;;;;3.75;1.85;;;;;;;29.00;45.27;97557.41;5052729;28;20029;-80
2021/08/08 08:38:53;;;;;;;2.97;1.70;;;;;;;30.38;43.04;97555.66;5052672;28;20389;-80
2021/08/08 08:41:25;;;;;;;3.15;1.65;;;;;;;30.80;41.86;97568.84;5054966;28;20025;-79
2021/08/08 08:43:51;;;;;;;5.90;2.08;;;;;;;31.29;40.26;97554.78;5051397;28;20021;-77
2021/08/08 08:46:16;;;;;;;2.65;1.73;;;;;;;30.35;41.66;97562.19;5053975;28;20466;-78
2021/08/08 08:48:43;;;;;;;5.55;1.77;;;;;;;29.30;44.16;97565.00;5055290;28;20031;-79
2021/08/08 08:51:12;;;;;;;4.80;1.98;;;;;;;28.50;46.56;97574.22;5054823;28;20025;-84
2021/08/08 08:53:38;;;;;;;3.40;2.13;;;;;;;28.28;47.59;97568.09;5055666;28;20056;-87
2021/08/08 08:56:04;;;;;;;3.05;1.83;;;;;;;28.21;48.23;97573.81;5055756;28;20044;-83
2021/08/08 08:58:31;;;;;;;5.07;1.95;;;;;;;28.72;46.89;97571.94;5056271;28;20021;-87
2021/08/08 09:00:56;;;;;;;3.47;1.60;;;;;;;28.79;47.01;97575.44;5075268;28;20023;-89
2021/08/08 09:03:22;;;;;;;4.88;2.03;;;;;;;28.98;45.70;97559.84;5075286;28;20033;-76
2021/08/08 09:05:47;;;;;;;3.55;1.80;;;;;;;28.43;47.42;97560.25;5068325;28;20867;-80
2021/08/08 09:08:13;;;;;;;4.18;1.92;;;;;;;28.95;46.29;97561.50;5052461;28;20036;-76
2021/08/08 09:10:39;;;;;;;3.80;1.70;;;;;;;29.05;46.41;97559.75;5052620;28;20408;-78
2021/08/08 09:13:06;;;;;;;3.97;1.85;;;;;;;29.46;44.68;97546.19;5052737;28;20021;-77
2021/08/08 09:15:37;;;;;;;4.93;2.08;;;;;;;29.31;45.95;97550.47;5054326;28;20035;-79
2021/08/08 09:18:10;;;;;;;2.75;1.77;;;;;;;29.22;44.68;97547.38;5055632;28;20033;-80
2021/08/08 09:20:39;;;;;;;4.18;1.60;;;;;;;29.24;45.19;97544.97;5052933;28;20482;-79
2021/08/08 09:23:04;;;;;;;5.85;2.38;;;;;;;29.44;44.97;97542.19;5048226;28;20503;-81
2021/08/08 09:25:30;;;;;;;4.65;2.10;;;;;;;30.10;43.87;97534.50;5049407;28;20112;-81
2021/08/08 09:28:10;;;;;;;6.38;2.13;;;;;;;29.70;44.54;97532.84;5052944;28;20061;-79
2021/08/08 09:30:40;;;;;;;6.47;1.70;;;;;;;30.65;42.49;97539.34;5050620;28;20110;-79
2021/08/08 09:33:09;;;;;;;4.10;1.95;;;;;;;30.10;43.48;97534.50;5051174;28;20052;-86
2021/08/08 09:35:42;;;;;;;4.05;1.98;;;;;;;29.42;45.03;97539.00;5056109;28;20090;-81
2021/08/08 09:38:11;;;;;;;5.30;1.90;;;;;;;30.18;43.96;97535.13;5052525;28;20044;-76
2021/08/08 09:40:39;;;;;;;5.82;1.92;;;;;;;29.15;46.22;97531.41;5050772;28;20067;-77
2021/08/08 09:43:12;;;;;;;5.05;2.08;;;;;;;29.52;46.94;97536.00;5052265;28;20029;-78
2021/08/08 09:45:44;;;;;;;3.88;2.45;;;;;;;29.01;46.90;97528.00;5051817;28;20927;-75
2021/08/08 09:48:12;;;;;;;3.80;2.20;;;;;;;28.16;49.68;97530.03;5051839;28;20063;-85
2021/08/08 09:50:42;;;;;;;3.38;2.05;;;;;;;28.04;51.07;97529.75;5053498;28;20409;-78
2021/08/08 09:53:20;;;;;;;3.42;1.90;;;;;;;28.63;49.39;97528.16;5054311;28;20122;-79
2021/08/08 09:55:46;;;;;;;4.20;2.20;;;;;;;28.33;47.99;97530.22;5068478;28;20024;-81
2021/08/08 09:58:22;;;;;;;6.32;2.83;;;;;;;28.99;47.14;97527.63;5059349;28;20033;-78
2021/08/08 10:00:50;;;;;;;9.25;2.72;;;;;;;29.49;48.77;97536.84;5063898;28;20025;-80
2021/08/08 10:03:17;;;;;;;6.03;2.50;;;;;;;29.52;46.16;97533.19;5063374;28;20017;-78
2021/08/08 10:05:46;;;;;;;2.20;2.00;;;;;;;29.75;45.98;97535.16;5051617;28;20020;-77
2021/08/08 10:08:15;;;;;;;4.53;2.00;;;;;;;28.96;47.67;97528.50;5048107;28;20423;-81
2021/08/08 10:10:43;;;;;;;3.33;2.10;;;;;;;29.63;46.31;97530.94;5052158;28;20120;-79
2021/08/08 10:13:34;;;;;;;5.57;2.47;;;;;;;29.92;45.48;97530.41;5048799;28;20029;-78
2021/08/08 10:16:04;;;;;;;7.45;1.95;;;;;;;30.18;45.14;97538.75;5048978;28;20394;-79
2021/08/08 10:18:36;;;;;;;2.65;2.22;;;;;;;28.60;47.96;97537.47;5049296;28;20021;-80
2021/08/08 10:21:03;;;;;;;3.38;2.00;;;;;;;28.42;48.13;97528.47;5051728;28;20405;-82
2021/08/08 10:23:31;;;;;;;3.67;2.53;;;;;;;28.82;47.87;97529.50;5049558;28;21343;-79
2021/08/08 10:25:57;;;;;;;4.22;2.13;;;;;;;28.86;48.80;97529.47;5051495;28;20033;-81
2021/08/08 10:28:23;;;;;;;9.95;2.78;;;;;;;29.00;47.34;97526.44;5049953;28;20027;-79
2021/08/08 10:30:49;;;;;;;4.85;1.88;;;;;;;29.34;46.66;97534.72;5050526;28;20033;-79
2021/08/08 10:33:15;;;;;;;2.72;2.40;;;;;;;29.47;47.65;97547.78;5050634;28;20371;-79
2021/08/08 10:35:46;;;;;;;3.03;1.92;;;;;;;29.15;46.97;97542.66;5053427;28;20025;-79
2021/08/08 10:38:13;;;;;;;4.43;2.10;;;;;;;29.19;48.35;97542.59;5050961;28;20578;-79
2021/08/08 10:40:40;;;;;;;3.40;2.22;;;;;;;29.59;46.12;97554.81;5052119;28;20188;-78
2021/08/08 10:43:08;;;;;;;2.80;1.92;;;;;;;30.27;44.37;97555.88;5050276;28;20025;-79
2021/08/08 10:45:38;;;;;;;5.38;2.40;;;;;;;30.72;44.96;97547.66;5049402;28;20025;-79
2021/08/08 10:48:11;;;;;;;4.75;2.03;;;;;;;30.74;44.23;97545.19;5049552;28;20029;-78
2021/08/08 10:50:43;;;;;;;3.38;2.03;;;;;;;30.00;46.91;97529.06;5049017;28;20032;-78
2021/08/08 10:53:20;;;;;;;5.38;2.20;;;;;;;29.62;46.85;97514.47;5047439;28;20025;-78
2021/08/08 10:55:46;;;;;;;3.03;2.22;;;;;;;29.49;46.55;97508.66;5047994;28;20055;-78
2021/08/08 10:58:16;;;;;;;5.38;2.22;;;;;;;29.26;46.51;97519.94;5050047;28;20021;-76
2021/08/08 11:00:43;;;;;;;6.88;2.20;;;;;;;29.85;45.76;97524.94;5048477;28;20027;-78
2021/08/08 11:03:13;;;;;;;5.07;2.63;;;;;;;29.70;47.03;97528.00;5046771;28;20142;-74
2021/08/08 11:05:40;;;;;;;9.65;3.63;;;;;;;29.30;47.85;97512.25;5048173;28;20474;-78
2021/08/08 11:08:07;;;;;;;2.35;2.10;;;;;;;29.03;49.30;97508.66;5049707;28;20514;-78
2021/08/08 11:10:36;;;;;;;6.13;2.08;;;;;;;29.06;47.72;97510.63;5048660;28;20078;-78
2021/08/08 11:13:02;;;;;;;4.22;2.08;;;;;;;29.25;48.59;97523.22;5049836;28;20021;-75
2021/08/08 11:15:35;;;;;;;7.95;2.60;;;;;;;29.30;49.62;97514.25;5048909;28;20029;-77
2021/08/08 11:18:01;;;;;;;20.23;13.40;;;;;;;28.91;51.67;97515.72;5050022;28;20051;-78
2021/08/08 11:20:29;;;;;;;6.80;4.05;;;;;;;29.03;52.29;97519.94;5049286;28;20029;-81
2021/08/08 11:22:56;;;;;;;8.60;5.97;;;;;;;29.12;53.80;97515.34;5050343;28;20061;-80
2021/08/08 11:25:22;;;;;;;4.32;2.38;;;;;;;29.09;54.67;97523.84;5049692;28;20550;-77
2021/08/08 11:27:53;;;;;;;5.32;2.67;;;;;;;29.84;54.36;97523.34;5050466;28;20017;-78